createdAt,value
2023-01-31T00:10:58.610Z,10.84
2023-01-31T00:22:58.625Z,10.83
2023-01-31T00:34:58.738Z,10.83
2023-01-31T00:46:58.793Z,10.83
2023-01-31T00:58:58.640Z,10.83
2023-01-31T01:10:58.696Z,10.82
2023-01-31T01:22:58.649Z,10.82
2023-01-31T01:34:58.730Z,10.81
2023-01-31T01:46:58.721Z,10.81
2023-01-31T01:58:58.624Z,10.81
2023-01-31T02:10:58.730Z,10.81
2023-01-31T02:22:58.707Z,10.80
2023-01-31T02:34:58.666Z,10.80
2023-01-31T02:46:58.702Z,10.79
2023-01-31T02:58:58.695Z,10.79
2023-01-31T03:10:58.738Z,10.79
2023-01-31T03:22:58.716Z,10.78
2023-01-31T03:34:58.705Z,10.78
2023-01-31T03:46:58.729Z,10.77
2023-01-31T03:58:58.707Z,10.77
2023-01-31T04:10:58.673Z,10.77
2023-01-31T04:22:58.620Z,10.75
2023-01-31T04:35:01.276Z,10.76
2023-01-31T04:46:58.744Z,10.76
2023-01-31T04:58:58.707Z,10.75
2023-01-31T05:10:58.619Z,10.75
2023-01-31T05:22:58.728Z,10.74
2023-01-31T05:34:58.629Z,10.74
2023-01-31T05:46:58.803Z,10.74
2023-01-31T05:58:58.611Z,10.72
2023-01-31T06:10:58.681Z,10.70
2023-01-31T06:22:58.654Z,10.72
2023-01-31T06:34:58.687Z,10.72
2023-01-31T06:46:58.629Z,10.71
2023-01-31T06:58:58.627Z,10.71
2023-01-31T07:10:58.641Z,10.71
2023-01-31T07:22:58.666Z,10.70
2023-01-31T07:34:58.627Z,10.70
2023-01-31T07:46:58.741Z,10.70
2023-01-31T07:58:58.628Z,10.71
2023-01-31T08:10:58.720Z,10.71
2023-01-31T08:22:58.692Z,10.72
2023-01-31T08:34:58.739Z,10.74
2023-01-31T08:46:58.772Z,10.77
2023-01-31T08:58:58.682Z,10.74
2023-01-31T09:10:58.707Z,10.74
2023-01-31T09:22:58.724Z,10.75
2023-01-31T09:34:58.624Z,10.75
2023-01-31T09:46:58.791Z,10.73
2023-01-31T09:58:58.702Z,10.75
2023-01-31T10:10:58.732Z,10.77
2023-01-31T10:22:58.710Z,10.79
2023-01-31T10:34:58.702Z,10.77
2023-01-31T10:46:58.793Z,10.80
2023-01-31T10:58:59.133Z,10.76
2023-01-31T11:10:58.732Z,10.76
2023-01-31T11:22:58.613Z,10.75
2023-01-31T11:34:58.670Z,10.76
2023-01-31T11:46:58.629Z,10.76
2023-01-31T11:58:58.732Z,10.76
2023-01-31T12:10:58.774Z,10.76
2023-01-31T12:22:58.718Z,10.76
2023-01-31T12:35:01.720Z,10.76
2023-01-31T12:47:10.380Z,10.76
2023-01-31T12:59:14.715Z,10.77
2023-01-31T13:10:58.684Z,10.76
2023-01-31T13:22:58.738Z,10.75
2023-01-31T13:34:58.626Z,10.75
2023-01-31T13:46:58.623Z,10.73
2023-01-31T13:58:58.704Z,10.73
2023-01-31T14:10:58.623Z,10.73
2023-01-31T14:22:58.704Z,10.72
2023-01-31T14:34:58.616Z,10.72
2023-01-31T14:47:01.219Z,10.71
2023-01-31T14:58:58.619Z,10.71
2023-01-31T15:10:58.706Z,10.71
2023-01-31T15:22:58.731Z,10.70
2023-01-31T15:34:58.682Z,10.68
2023-01-31T15:46:58.626Z,10.69
2023-01-31T15:58:58.732Z,10.68
2023-01-31T16:10:58.711Z,10.67
2023-01-31T16:22:58.707Z,10.66
2023-01-31T16:34:58.617Z,10.65
2023-01-31T16:46:58.709Z,10.65
2023-01-31T16:58:58.622Z,10.64
2023-01-31T17:10:58.683Z,10.64
2023-01-31T17:23:02.984Z,10.63
2023-01-31T17:34:58.698Z,10.62
2023-01-31T17:46:58.714Z,10.62
2023-01-31T17:58:58.615Z,10.61
2023-01-31T18:10:58.735Z,10.61
2023-01-31T18:22:58.705Z,10.60
2023-01-31T18:34:58.687Z,10.59
2023-01-31T18:46:58.632Z,10.59
2023-01-31T18:58:58.673Z,10.58
2023-01-31T19:10:58.737Z,10.57
2023-01-31T19:22:58.693Z,10.56
2023-01-31T19:34:58.668Z,10.55
2023-01-31T19:46:58.727Z,10.55
2023-01-31T19:58:58.613Z,10.55
2023-01-31T20:10:59.700Z,10.54
2023-01-31T20:22:58.702Z,10.53
2023-01-31T20:34:58.726Z,10.53
2023-01-31T20:46:58.711Z,10.51
2023-01-31T20:58:58.614Z,10.52
2023-01-31T21:10:58.712Z,10.50
2023-01-31T21:22:58.730Z,10.51
2023-01-31T21:34:59.799Z,10.50
2023-01-31T21:46:58.718Z,10.50
2023-01-31T21:58:58.685Z,10.50
2023-01-31T22:10:58.739Z,10.49
2023-01-31T22:22:58.710Z,10.49
2023-01-31T22:34:58.715Z,10.48
2023-01-31T22:46:58.625Z,10.49
2023-01-31T22:58:59.837Z,10.48
2023-01-31T23:10:58.716Z,10.47
2023-01-31T23:22:58.647Z,10.47
2023-01-31T23:34:58.705Z,10.46
2023-01-31T23:46:58.718Z,10.46
2023-01-31T23:58:58.715Z,10.47
